sensor_id;sensor_type;location;lat;lon;timestamp;temperature;humidity
7349;DHT22;13010;-33.424;-70.614;2023-01-29T00:53:21;23.30;42.10
7349;DHT22;13010;-33.424;-70.614;2023-01-29T00:56:10;22.90;43.70
7349;DHT22;13010;-33.424;-70.614;2023-01-29T00:58:59;22.80;44.00
7349;DHT22;13010;-33.424;-70.614;2023-01-29T01:01:48;22.70;44.40
7349;DHT22;13010;-33.424;-70.614;2023-01-29T01:04:53;22.70;44.30
7349;DHT22;13010;-33.424;-70.614;2023-01-29T01:07:42;22.50;44.50
7349;DHT22;13010;-33.424;-70.614;2023-01-29T01:10:33;22.40;45.30
7349;DHT22;13010;-33.424;-70.614;2023-01-29T01:13:20;22.30;45.50
7349;DHT22;13010;-33.424;-70.614;2023-01-29T01:16:10;22.10;46.40
7349;DHT22;13010;-33.424;-70.614;2023-01-29T01:19:02;22.10;46.60
7349;DHT22;13010;-33.424;-70.614;2023-01-29T01:21:50;21.90;47.80
7349;DHT22;13010;-33.424;-70.614;2023-01-29T01:24:39;21.90;48.30
7349;DHT22;13010;-33.424;-70.614;2023-01-29T01:27:31;21.80;48.80
7349;DHT22;13010;-33.424;-70.614;2023-01-29T01:30:19;21.70;49.40
7349;DHT22;13010;-33.424;-70.614;2023-01-29T01:33:09;21.50;49.60
7349;DHT22;13010;-33.424;-70.614;2023-01-29T01:36:01;21.50;50.40
7349;DHT22;13010;-33.424;-70.614;2023-01-29T01:38:50;21.50;51.10
7349;DHT22;13010;-33.424;-70.614;2023-01-29T01:41:39;21.40;50.80
7349;DHT22;13010;-33.424;-70.614;2023-01-29T01:44:57;21.30;51.80
7349;DHT22;13010;-33.424;-70.614;2023-01-29T01:47:51;21.20;52.40
7349;DHT22;13010;-33.424;-70.614;2023-01-29T01:50:44;21.10;55.00
7349;DHT22;13010;-33.424;-70.614;2023-01-29T01:53:35;20.80;56.30
7349;DHT22;13010;-33.424;-70.614;2023-01-29T01:56:27;20.50;58.30
7349;DHT22;13010;-33.424;-70.614;2023-01-29T01:59:23;20.30;61.20
7349;DHT22;13010;-33.424;-70.614;2023-01-29T02:02:13;20.30;65.10
7349;DHT22;13010;-33.424;-70.614;2023-01-29T02:05:19;20.30;67.50
7349;DHT22;13010;-33.424;-70.614;2023-01-29T02:08:28;20.30;67.80
7349;DHT22;13010;-33.424;-70.614;2023-01-29T02:11:36;20.20;70.10
7349;DHT22;13010;-33.424;-70.614;2023-01-29T02:14:25;20.00;71.20
7349;DHT22;13010;-33.424;-70.614;2023-01-29T02:17:18;20.00;73.50
7349;DHT22;13010;-33.424;-70.614;2023-01-29T02:20:13;20.00;73.90
7349;DHT22;13010;-33.424;-70.614;2023-01-29T02:23:35;20.10;75.10
7349;DHT22;13010;-33.424;-70.614;2023-01-29T02:26:49;20.10;76.90
7349;DHT22;13010;-33.424;-70.614;2023-01-29T02:29:51;19.90;78.50
7349;DHT22;13010;-33.424;-70.614;2023-01-29T02:32:48;19.70;81.00
7349;DHT22;13010;-33.424;-70.614;2023-01-29T02:35:45;19.70;83.30
7349;DHT22;13010;-33.424;-70.614;2023-01-29T02:38:42;19.50;87.10
7349;DHT22;13010;-33.424;-70.614;2023-01-29T02:41:36;19.30;90.50
7349;DHT22;13010;-33.424;-70.614;2023-01-29T02:44:32;19.20;91.90
7349;DHT22;13010;-33.424;-70.614;2023-01-29T02:47:32;19.30;93.50
7349;DHT22;13010;-33.424;-70.614;2023-01-29T02:50:28;19.20;95.20
7349;DHT22;13010;-33.424;-70.614;2023-01-29T02:53:24;19.20;97.60
7349;DHT22;13010;-33.424;-70.614;2023-01-29T02:56:16;19.10;99.10
7349;DHT22;13010;-33.424;-70.614;2023-01-29T02:59:08;19.10;99.90
7349;DHT22;13010;-33.424;-70.614;2023-01-29T03:02:04;19.10;99.90
7349;DHT22;13010;-33.424;-70.614;2023-01-29T03:05:00;19.00;99.90
7349;DHT22;13010;-33.424;-70.614;2023-01-29T03:07:54;19.20;99.90
7349;DHT22;13010;-33.424;-70.614;2023-01-29T03:10:50;19.20;99.90
7349;DHT22;13010;-33.424;-70.614;2023-01-29T03:13:44;19.40;99.90
7349;DHT22;13010;-33.424;-70.614;2023-01-29T03:16:37;19.30;99.90
7349;DHT22;13010;-33.424;-70.614;2023-01-29T03:19:31;19.40;99.90
7349;DHT22;13010;-33.424;-70.614;2023-01-29T03:22:25;19.40;99.90
7349;DHT22;13010;-33.424;-70.614;2023-01-29T03:25:15;19.40;99.90
7349;DHT22;13010;-33.424;-70.614;2023-01-29T03:28:22;19.40;99.90
7349;DHT22;13010;-33.424;-70.614;2023-01-29T03:31:29;19.30;99.90
7349;DHT22;13010;-33.424;-70.614;2023-01-29T03:34:38;19.20;99.90
7349;DHT22;13010;-33.424;-70.614;2023-01-29T03:37:31;19.20;99.90
7349;DHT22;13010;-33.424;-70.614;2023-01-29T03:40:21;19.20;99.90
7349;DHT22;13010;-33.424;-70.614;2023-01-29T03:43:16;19.20;99.90
7349;DHT22;13010;-33.424;-70.614;2023-01-29T03:46:07;19.10;99.90
7349;DHT22;13010;-33.424;-70.614;2023-01-29T03:49:09;19.20;99.90
7349;DHT22;13010;-33.424;-70.614;2023-01-29T03:52:07;19.30;99.90
7349;DHT22;13010;-33.424;-70.614;2023-01-29T03:55:06;19.20;99.90
7349;DHT22;13010;-33.424;-70.614;2023-01-29T03:57:59;19.00;99.90
7349;DHT22;13010;-33.424;-70.614;2023-01-29T04:01:09;18.90;99.90
7349;DHT22;13010;-33.424;-70.614;2023-01-29T04:04:04;18.70;99.90
7349;DHT22;13010;-33.424;-70.614;2023-01-29T04:07:03;18.50;99.90
7349;DHT22;13010;-33.424;-70.614;2023-01-29T04:09:57;18.30;99.90
7349;DHT22;13010;-33.424;-70.614;2023-01-29T04:12:51;18.20;99.90
7349;DHT22;13010;-33.424;-70.614;2023-01-29T04:15:44;18.10;99.90
7349;DHT22;13010;-33.424;-70.614;2023-01-29T04:18:34;18.00;99.90
7349;DHT22;13010;-33.424;-70.614;2023-01-29T04:21:25;18.00;99.90
7349;DHT22;13010;-33.424;-70.614;2023-01-29T04:24:15;17.90;99.90
7349;DHT22;13010;-33.424;-70.614;2023-01-29T04:27:17;17.70;99.90
7349;DHT22;13010;-33.424;-70.614;2023-01-29T04:30:22;17.50;99.90
7349;DHT22;13010;-33.424;-70.614;2023-01-29T04:33:21;17.40;99.90
7349;DHT22;13010;-33.424;-70.614;2023-01-29T04:36:19;17.30;99.90
7349;DHT22;13010;-33.424;-70.614;2023-01-29T04:39:17;17.30;99.90
7349;DHT22;13010;-33.424;-70.614;2023-01-29T04:42:12;17.20;99.90
7349;DHT22;13010;-33.424;-70.614;2023-01-29T04:45:07;17.30;99.90
7349;DHT22;13010;-33.424;-70.614;2023-01-29T04:48:11;17.30;99.90
7349;DHT22;13010;-33.424;-70.614;2023-01-29T04:51:09;17.40;99.90
7349;DHT22;13010;-33.424;-70.614;2023-01-29T04:54:04;17.40;99.90
7349;DHT22;13010;-33.424;-70.614;2023-01-29T04:56:56;17.40;99.90
7349;DHT22;13010;-33.424;-70.614;2023-01-29T04:59:49;17.40;99.90
7349;DHT22;13010;-33.424;-70.614;2023-01-29T05:02:40;17.30;99.90
7349;DHT22;13010;-33.424;-70.614;2023-01-29T05:05:31;17.20;99.90
7349;DHT22;13010;-33.424;-70.614;2023-01-29T05:08:22;17.20;99.90
7349;DHT22;13010;-33.424;-70.614;2023-01-29T05:11:12;17.10;99.90
7349;DHT22;13010;-33.424;-70.614;2023-01-29T05:14:03;16.90;99.90
7349;DHT22;13010;-33.424;-70.614;2023-01-29T05:16:53;16.80;99.90
7349;DHT22;13010;-33.424;-70.614;2023-01-29T05:19:44;16.70;99.90
7349;DHT22;13010;-33.424;-70.614;2023-01-29T05:22:37;16.50;99.90
7349;DHT22;13010;-33.424;-70.614;2023-01-29T05:25:29;16.30;99.90
7349;DHT22;13010;-33.424;-70.614;2023-01-29T05:28:18;16.20;99.90
7349;DHT22;13010;-33.424;-70.614;2023-01-29T05:31:05;16.20;99.90
7349;DHT22;13010;-33.424;-70.614;2023-01-29T05:33:54;16.10;99.90
7349;DHT22;13010;-33.424;-70.614;2023-01-29T05:36:43;16.10;99.90
7349;DHT22;13010;-33.424;-70.614;2023-01-29T05:39:33;16.00;99.90
7349;DHT22;13010;-33.424;-70.614;2023-01-29T05:42:22;16.00;99.90
7349;DHT22;13010;-33.424;-70.614;2023-01-29T05:45:11;16.10;99.90
7349;DHT22;13010;-33.424;-70.614;2023-01-29T05:48:00;16.00;99.90
7349;DHT22;13010;-33.424;-70.614;2023-01-29T05:50:49;16.00;99.90
7349;DHT22;13010;-33.424;-70.614;2023-01-29T05:53:38;16.00;99.90
7349;DHT22;13010;-33.424;-70.614;2023-01-29T05:56:29;15.90;99.90
7349;DHT22;13010;-33.424;-70.614;2023-01-29T05:59:17;15.80;99.90
7349;DHT22;13010;-33.424;-70.614;2023-01-29T06:02:06;15.80;99.90
7349;DHT22;13010;-33.424;-70.614;2023-01-29T06:04:56;15.60;99.90
7349;DHT22;13010;-33.424;-70.614;2023-01-29T06:07:44;15.50;99.90
7349;DHT22;13010;-33.424;-70.614;2023-01-29T06:10:33;15.40;99.90
7349;DHT22;13010;-33.424;-70.614;2023-01-29T06:13:24;15.30;99.90
7349;DHT22;13010;-33.424;-70.614;2023-01-29T06:16:13;15.30;99.90
7349;DHT22;13010;-33.424;-70.614;2023-01-29T06:19:02;15.30;99.90
7349;DHT22;13010;-33.424;-70.614;2023-01-29T06:21:51;15.10;99.90
7349;DHT22;13010;-33.424;-70.614;2023-01-29T06:24:40;15.10;99.90
7349;DHT22;13010;-33.424;-70.614;2023-01-29T06:27:29;15.10;99.90
7349;DHT22;13010;-33.424;-70.614;2023-01-29T06:30:20;15.10;99.90
7349;DHT22;13010;-33.424;-70.614;2023-01-29T06:33:09;15.00;99.90
7349;DHT22;13010;-33.424;-70.614;2023-01-29T06:35:58;15.00;99.90
7349;DHT22;13010;-33.424;-70.614;2023-01-29T06:38:47;14.80;99.90
7349;DHT22;13010;-33.424;-70.614;2023-01-29T06:41:36;14.60;99.90
7349;DHT22;13010;-33.424;-70.614;2023-01-29T06:44:25;14.70;99.90
7349;DHT22;13010;-33.424;-70.614;2023-01-29T06:47:16;14.70;99.90
7349;DHT22;13010;-33.424;-70.614;2023-01-29T06:50:05;14.40;99.90
7349;DHT22;13010;-33.424;-70.614;2023-01-29T06:52:54;14.30;99.90
7349;DHT22;13010;-33.424;-70.614;2023-01-29T06:55:45;14.10;99.90
7349;DHT22;13010;-33.424;-70.614;2023-01-29T06:58:38;14.10;99.90
7349;DHT22;13010;-33.424;-70.614;2023-01-29T07:01:28;14.10;99.90
7349;DHT22;13010;-33.424;-70.614;2023-01-29T07:04:20;14.10;99.90
7349;DHT22;13010;-33.424;-70.614;2023-01-29T07:07:08;14.00;99.90
7349;DHT22;13010;-33.424;-70.614;2023-01-29T07:10:00;13.90;99.90
7349;DHT22;13010;-33.424;-70.614;2023-01-29T07:12:49;13.80;99.90
7349;DHT22;13010;-33.424;-70.614;2023-01-29T07:15:38;13.70;99.90
7349;DHT22;13010;-33.424;-70.614;2023-01-29T07:18:27;13.60;99.90
7349;DHT22;13010;-33.424;-70.614;2023-01-29T07:21:17;13.70;99.90
7349;DHT22;13010;-33.424;-70.614;2023-01-29T07:24:07;13.80;99.90
7349;DHT22;13010;-33.424;-70.614;2023-01-29T07:26:56;13.80;99.90
7349;DHT22;13010;-33.424;-70.614;2023-01-29T07:29:44;13.60;99.90
7349;DHT22;13010;-33.424;-70.614;2023-01-29T07:32:33;14.00;99.90
7349;DHT22;13010;-33.424;-70.614;2023-01-29T07:35:22;14.10;99.90
7349;DHT22;13010;-33.424;-70.614;2023-01-29T07:38:12;13.90;99.90
7349;DHT22;13010;-33.424;-70.614;2023-01-29T07:41:01;13.90;99.90
7349;DHT22;13010;-33.424;-70.614;2023-01-29T07:43:50;13.70;99.90
7349;DHT22;13010;-33.424;-70.614;2023-01-29T07:46:39;13.70;99.90
7349;DHT22;13010;-33.424;-70.614;2023-01-29T07:49:28;13.80;99.90
7349;DHT22;13010;-33.424;-70.614;2023-01-29T07:52:17;14.10;99.90
7349;DHT22;13010;-33.424;-70.614;2023-01-29T07:55:09;14.00;99.90
7349;DHT22;13010;-33.424;-70.614;2023-01-29T07:58:02;14.00;99.90
7349;DHT22;13010;-33.424;-70.614;2023-01-29T08:00:51;14.10;99.90
7349;DHT22;13010;-33.424;-70.614;2023-01-29T08:03:40;14.10;99.90
7349;DHT22;13010;-33.424;-70.614;2023-01-29T08:06:29;14.20;99.90
7349;DHT22;13010;-33.424;-70.614;2023-01-29T08:09:18;14.20;99.90
7349;DHT22;13010;-33.424;-70.614;2023-01-29T08:12:09;14.20;99.90
7349;DHT22;13010;-33.424;-70.614;2023-01-29T08:14:58;14.20;99.90
7349;DHT22;13010;-33.424;-70.614;2023-01-29T08:17:47;13.90;99.90
7349;DHT22;13010;-33.424;-70.614;2023-01-29T08:20:36;13.90;99.90
7349;DHT22;13010;-33.424;-70.614;2023-01-29T08:23:25;14.00;99.90
7349;DHT22;13010;-33.424;-70.614;2023-01-29T08:26:14;14.20;99.90
7349;DHT22;13010;-33.424;-70.614;2023-01-29T08:29:04;14.00;99.90
7349;DHT22;13010;-33.424;-70.614;2023-01-29T08:31:53;13.90;99.90
7349;DHT22;13010;-33.424;-70.614;2023-01-29T08:34:43;13.80;99.90
7349;DHT22;13010;-33.424;-70.614;2023-01-29T08:37:33;13.80;99.90
7349;DHT22;13010;-33.424;-70.614;2023-01-29T08:40:25;13.90;99.90
7349;DHT22;13010;-33.424;-70.614;2023-01-29T08:43:14;13.80;99.90
7349;DHT22;13010;-33.424;-70.614;2023-01-29T08:46:06;14.00;99.90
7349;DHT22;13010;-33.424;-70.614;2023-01-29T08:48:54;13.80;99.90
7349;DHT22;13010;-33.424;-70.614;2023-01-29T08:51:43;13.60;99.90
7349;DHT22;13010;-33.424;-70.614;2023-01-29T08:54:32;13.50;99.90
7349;DHT22;13010;-33.424;-70.614;2023-01-29T08:57:21;13.60;99.90
7349;DHT22;13010;-33.424;-70.614;2023-01-29T09:00:11;13.60;99.90
7349;DHT22;13010;-33.424;-70.614;2023-01-29T09:03:02;13.60;99.90
7349;DHT22;13010;-33.424;-70.614;2023-01-29T09:05:52;13.60;99.90
7349;DHT22;13010;-33.424;-70.614;2023-01-29T09:08:41;13.70;99.90
7349;DHT22;13010;-33.424;-70.614;2023-01-29T09:11:30;13.70;99.90
7349;DHT22;13010;-33.424;-70.614;2023-01-29T09:14:19;13.70;99.90
7349;DHT22;13010;-33.424;-70.614;2023-01-29T09:17:08;13.60;99.90
7349;DHT22;13010;-33.424;-70.614;2023-01-29T09:19:58;13.30;99.90
7349;DHT22;13010;-33.424;-70.614;2023-01-29T09:22:47;13.10;99.90
7349;DHT22;13010;-33.424;-70.614;2023-01-29T09:25:43;13.10;99.90
7349;DHT22;13010;-33.424;-70.614;2023-01-29T09:28:31;13.10;99.90
7349;DHT22;13010;-33.424;-70.614;2023-01-29T09:31:20;13.00;99.90
7349;DHT22;13010;-33.424;-70.614;2023-01-29T09:34:08;12.80;99.90
7349;DHT22;13010;-33.424;-70.614;2023-01-29T09:36:59;12.80;99.90
7349;DHT22;13010;-33.424;-70.614;2023-01-29T09:39:48;12.60;99.90
7349;DHT22;13010;-33.424;-70.614;2023-01-29T09:42:39;12.60;99.90
7349;DHT22;13010;-33.424;-70.614;2023-01-29T09:45:34;12.50;99.90
7349;DHT22;13010;-33.424;-70.614;2023-01-29T09:48:26;12.50;99.90
7349;DHT22;13010;-33.424;-70.614;2023-01-29T09:51:24;12.50;99.90
7349;DHT22;13010;-33.424;-70.614;2023-01-29T09:54:20;12.40;99.90
7349;DHT22;13010;-33.424;-70.614;2023-01-29T09:57:11;12.40;99.90
7349;DHT22;13010;-33.424;-70.614;2023-01-29T10:00:03;12.50;99.90
7349;DHT22;13010;-33.424;-70.614;2023-01-29T11:15:20;17.90;99.90
7349;DHT22;13010;-33.424;-70.614;2023-01-29T11:18:12;20.10;99.90
7349;DHT22;13010;-33.424;-70.614;2023-01-29T11:21:03;22.00;99.90
7349;DHT22;13010;-33.424;-70.614;2023-01-29T11:24:05;24.40;99.90
7349;DHT22;13010;-33.424;-70.614;2023-01-29T11:26:55;26.70;99.90
7349;DHT22;13010;-33.424;-70.614;2023-01-29T11:29:47;28.40;99.90
7349;DHT22;13010;-33.424;-70.614;2023-01-29T11:32:38;29.50;99.90
7349;DHT22;13010;-33.424;-70.614;2023-01-29T11:35:27;28.00;99.90
7349;DHT22;13010;-33.424;-70.614;2023-01-29T11:38:26;29.10;99.90
7349;DHT22;13010;-33.424;-70.614;2023-01-29T11:41:16;31.50;99.90
7349;DHT22;13010;-33.424;-70.614;2023-01-29T11:44:20;32.60;96.20
7349;DHT22;13010;-33.424;-70.614;2023-01-29T11:47:17;31.90;93.50
7349;DHT22;13010;-33.424;-70.614;2023-01-29T11:50:20;33.00;86.20
7349;DHT22;13010;-33.424;-70.614;2023-01-29T11:53:23;34.00;76.50
7349;DHT22;13010;-33.424;-70.614;2023-01-29T11:56:19;34.90;69.00
7349;DHT22;13010;-33.424;-70.614;2023-01-29T11:59:26;34.60;63.20
7349;DHT22;13010;-33.424;-70.614;2023-01-29T12:02:34;35.60;57.10
7349;DHT22;13010;-33.424;-70.614;2023-01-29T12:05:26;35.80;54.70
7349;DHT22;13010;-33.424;-70.614;2023-01-29T12:08:17;37.20;48.70
7349;DHT22;13010;-33.424;-70.614;2023-01-29T12:11:09;38.10;43.90
7349;DHT22;13010;-33.424;-70.614;2023-01-29T12:14:00;38.10;39.40
7349;DHT22;13010;-33.424;-70.614;2023-01-29T12:16:52;36.60;42.20
7349;DHT22;13010;-33.424;-70.614;2023-01-29T12:19:45;37.90;41.30
7349;DHT22;13010;-33.424;-70.614;2023-01-29T12:22:41;39.00;36.00
7349;DHT22;13010;-33.424;-70.614;2023-01-29T12:25:41;37.60;38.50
7349;DHT22;13010;-33.424;-70.614;2023-01-29T12:28:39;38.70;34.70
7349;DHT22;13010;-33.424;-70.614;2023-01-29T12:31:37;37.70;37.00
7349;DHT22;13010;-33.424;-70.614;2023-01-29T12:34:34;39.30;33.10
7349;DHT22;13010;-33.424;-70.614;2023-01-29T12:37:29;39.40;32.60
7349;DHT22;13010;-33.424;-70.614;2023-01-29T12:40:28;38.30;31.80
7349;DHT22;13010;-33.424;-70.614;2023-01-29T12:43:18;39.60;30.60
7349;DHT22;13010;-33.424;-70.614;2023-01-29T12:46:17;38.30;31.80
7349;DHT22;13010;-33.424;-70.614;2023-01-29T12:49:13;37.50;32.50
7349;DHT22;13010;-33.424;-70.614;2023-01-29T12:52:08;40.60;29.00
7349;DHT22;13010;-33.424;-70.614;2023-01-29T12:55:01;39.40;30.80
7349;DHT22;13010;-33.424;-70.614;2023-01-29T12:57:55;40.50;28.70
7349;DHT22;13010;-33.424;-70.614;2023-01-29T13:00:47;38.90;29.60
7349;DHT22;13010;-33.424;-70.614;2023-01-29T13:03:47;39.10;29.50
7349;DHT22;13010;-33.424;-70.614;2023-01-29T13:06:40;41.00;27.10
7349;DHT22;13010;-33.424;-70.614;2023-01-29T13:09:32;43.60;24.00
7349;DHT22;13010;-33.424;-70.614;2023-01-29T13:12:23;41.90;24.20
7349;DHT22;13010;-33.424;-70.614;2023-01-29T13:15:21;39.90;25.70
7349;DHT22;13010;-33.424;-70.614;2023-01-29T13:18:34;38.20;28.00
7349;DHT22;13010;-33.424;-70.614;2023-01-29T13:21:26;39.00;27.50
7349;DHT22;13010;-33.424;-70.614;2023-01-29T13:24:19;42.00;26.50
7349;DHT22;13010;-33.424;-70.614;2023-01-29T13:27:19;42.90;23.50
7349;DHT22;13010;-33.424;-70.614;2023-01-29T13:30:21;41.60;24.90
7349;DHT22;13010;-33.424;-70.614;2023-01-29T13:33:22;45.00;21.70
7349;DHT22;13010;-33.424;-70.614;2023-01-29T13:36:15;42.30;23.30
7349;DHT22;13010;-33.424;-70.614;2023-01-29T13:39:08;40.60;24.70
7349;DHT22;13010;-33.424;-70.614;2023-01-29T13:42:15;44.80;22.40
7349;DHT22;13010;-33.424;-70.614;2023-01-29T13:45:07;46.40;19.20
7349;DHT22;13010;-33.424;-70.614;2023-01-29T13:48:09;47.00;18.80
7349;DHT22;13010;-33.424;-70.614;2023-01-29T13:51:03;47.40;18.80
7349;DHT22;13010;-33.424;-70.614;2023-01-29T13:54:01;48.10;17.30
7349;DHT22;13010;-33.424;-70.614;2023-01-29T13:57:00;47.50;16.60
7349;DHT22;13010;-33.424;-70.614;2023-01-29T13:59:51;48.00;17.00
7349;DHT22;13010;-33.424;-70.614;2023-01-29T14:02:40;47.90;16.20
7349;DHT22;13010;-33.424;-70.614;2023-01-29T14:05:40;47.90;16.30
7349;DHT22;13010;-33.424;-70.614;2023-01-29T14:08:42;47.60;16.20
7349;DHT22;13010;-33.424;-70.614;2023-01-29T14:11:36;49.50;15.90
7349;DHT22;13010;-33.424;-70.614;2023-01-29T14:15:02;47.70;16.70
7349;DHT22;13010;-33.424;-70.614;2023-01-29T14:18:14;48.30;16.40
7349;DHT22;13010;-33.424;-70.614;2023-01-29T14:21:05;48.30;16.60
7349;DHT22;13010;-33.424;-70.614;2023-01-29T14:23:57;49.90;14.90
7349;DHT22;13010;-33.424;-70.614;2023-01-29T14:26:48;51.40;14.60
7349;DHT22;13010;-33.424;-70.614;2023-01-29T14:29:42;49.80;14.20
7349;DHT22;13010;-33.424;-70.614;2023-01-29T14:32:30;48.70;14.50
7349;DHT22;13010;-33.424;-70.614;2023-01-29T14:35:21;46.40;15.40
7349;DHT22;13010;-33.424;-70.614;2023-01-29T14:38:14;43.30;17.50
7349;DHT22;13010;-33.424;-70.614;2023-01-29T14:41:18;42.60;19.40
7349;DHT22;13010;-33.424;-70.614;2023-01-29T14:51:07;47.80;16.40
7349;DHT22;13010;-33.424;-70.614;2023-01-29T14:54:04;48.10;15.00
7349;DHT22;13010;-33.424;-70.614;2023-01-29T14:56:59;44.30;18.00
7349;DHT22;13010;-33.424;-70.614;2023-01-29T14:59:55;43.50;17.90
7349;DHT22;13010;-33.424;-70.614;2023-01-29T15:02:50;42.00;19.60
7349;DHT22;13010;-33.424;-70.614;2023-01-29T15:05:40;44.00;18.50
7349;DHT22;13010;-33.424;-70.614;2023-01-29T15:08:34;45.60;17.20
7349;DHT22;13010;-33.424;-70.614;2023-01-29T15:11:32;47.00;16.60
7349;DHT22;13010;-33.424;-70.614;2023-01-29T15:14:34;45.90;16.70
7349;DHT22;13010;-33.424;-70.614;2023-01-29T15:17:27;47.00;16.00
7349;DHT22;13010;-33.424;-70.614;2023-01-29T15:20:33;47.50;15.50
7349;DHT22;13010;-33.424;-70.614;2023-01-29T15:23:26;46.00;15.40
7349;DHT22;13010;-33.424;-70.614;2023-01-29T15:26:19;45.30;17.40
7349;DHT22;13010;-33.424;-70.614;2023-01-29T15:29:22;46.00;17.20
7349;DHT22;13010;-33.424;-70.614;2023-01-29T15:32:21;47.10;16.30
7349;DHT22;13010;-33.424;-70.614;2023-01-29T15:35:26;46.80;17.30
7349;DHT22;13010;-33.424;-70.614;2023-01-29T15:38:17;47.40;15.80
7349;DHT22;13010;-33.424;-70.614;2023-01-29T15:41:17;48.60;17.20
7349;DHT22;13010;-33.424;-70.614;2023-01-29T15:44:14;50.30;14.40
7349;DHT22;13010;-33.424;-70.614;2023-01-29T15:47:04;50.00;13.40
7349;DHT22;13010;-33.424;-70.614;2023-01-29T15:49:55;48.30;14.00
7349;DHT22;13010;-33.424;-70.614;2023-01-29T15:52:48;47.80;15.50
7349;DHT22;13010;-33.424;-70.614;2023-01-29T15:55:39;48.80;15.60
7349;DHT22;13010;-33.424;-70.614;2023-01-29T15:58:30;48.90;16.10
7349;DHT22;13010;-33.424;-70.614;2023-01-29T16:01:20;49.40;14.70
7349;DHT22;13010;-33.424;-70.614;2023-01-29T16:04:12;49.30;15.20
7349;DHT22;13010;-33.424;-70.614;2023-01-29T16:07:04;48.80;15.00
7349;DHT22;13010;-33.424;-70.614;2023-01-29T16:09:54;48.50;16.50
7349;DHT22;13010;-33.424;-70.614;2023-01-29T16:12:43;47.30;16.10
7349;DHT22;13010;-33.424;-70.614;2023-01-29T16:15:37;47.50;16.40
7349;DHT22;13010;-33.424;-70.614;2023-01-29T16:18:31;48.50;15.60
7349;DHT22;13010;-33.424;-70.614;2023-01-29T16:21:25;47.40;16.10
7349;DHT22;13010;-33.424;-70.614;2023-01-29T16:24:17;47.00;16.20
7349;DHT22;13010;-33.424;-70.614;2023-01-29T16:27:10;44.60;17.00
7349;DHT22;13010;-33.424;-70.614;2023-01-29T16:30:01;43.80;17.50
7349;DHT22;13010;-33.424;-70.614;2023-01-29T16:32:52;43.60;18.10
7349;DHT22;13010;-33.424;-70.614;2023-01-29T16:35:51;45.70;17.80
7349;DHT22;13010;-33.424;-70.614;2023-01-29T16:38:40;45.70;16.90
7349;DHT22;13010;-33.424;-70.614;2023-01-29T16:41:33;46.30;17.70
7349;DHT22;13010;-33.424;-70.614;2023-01-29T16:44:33;44.30;17.60
7349;DHT22;13010;-33.424;-70.614;2023-01-29T16:47:28;44.50;18.10
7349;DHT22;13010;-33.424;-70.614;2023-01-29T16:50:28;44.80;18.20
7349;DHT22;13010;-33.424;-70.614;2023-01-29T16:53:21;43.80;18.70
7349;DHT22;13010;-33.424;-70.614;2023-01-29T16:56:12;41.90;18.70
7349;DHT22;13010;-33.424;-70.614;2023-01-29T16:59:05;43.20;18.50
7349;DHT22;13010;-33.424;-70.614;2023-01-29T17:01:55;42.50;18.10
7349;DHT22;13010;-33.424;-70.614;2023-01-29T17:04:46;41.50;21.00
7349;DHT22;13010;-33.424;-70.614;2023-01-29T17:07:36;42.40;20.90
7349;DHT22;13010;-33.424;-70.614;2023-01-29T17:10:27;42.50;19.90
